Ada, MI (49301)

3:04 AM EST on February 09, 2016 (GMT -0500)
Timber Canyon | | Change Station
CLOSE
Current Station
Personal Weather Station
Location: Ada, MI
Elevation: 755 ft
Nearby Weather Stations

Elev 755 ft 42.93 °N, 85.48 °W | Updated 166 days ago

Cloudy
Cloudy
28 °F
Feels Like 17 °F
N
16
Wind Variable Wind from NW
Gusts 22 mph

Today
High -- | Low -- °F
--% Chance of Precip.
Yesterday
High -- | Low -- °F
Precip. -- in
Pressure 29.61 in
Visibility 10.0 miles
Clouds Overcast 1000 ft
Windchill 17 °F
Dew Point 23 °F
Humidity 80%
Rainfall in
Snow Depth Not available.
7:47 AM 6:04 PM
New Moon, 1% visible
METAR KGRR 090753Z AUTO 32012KT 10SM OVC010 00/M02 A2959 RMK AO2 SLP026 T00001022
Pressure 29.61 in
Visibility 10.0 miles
Clouds Overcast 1000 ft
Windchill 17 °F
Dew Point 23 °F
Humidity 80%
Rainfall in
Snow Depth Not available.
7:47 AM 6:04 PM
New Moon, 1% visible
METAR KGRR 090753Z AUTO 32012KT 10SM OVC010 00/M02 A2959 RMK AO2 SLP026 T00001022

10-Day Weather Forecast

Almanac

Astronomy

Feb. 09, 2016 Rise Set
Actual Time
Civil Twilight
Nautical Twilight
Astronomical Twilight
Moon
Length of Visible Light
Length of Day
Tomorrow will be .
, % of the Moon is Illuminated

Today's Extremes

State Highs State Lows

Community

WunderPhotos

Upload Photos

1,891,571 photos uploaded!

WunderBlog® & News

Nearby

Air Quality

  Air Quality AQ Index Pollutant
Not available.

Snow Depth

Station Depth Elevation

Earthquake Activity

City Distance Mag. Time & Date
Minimum magnitude displayed is 2.5.

Coastal Water Temperatures

Place Temperature

Stations

Nearby Weather Stations

Station Location Temp. Windchill Dew Point Humidity Wind Precip. Elev Updated Type
                   

Watches & Warnings

There are currently no watches in effect.